Main page
METAR-TAF:

METAR-TAF

Airports :

Torsby Airport

Torsby, Sweden

latitude: 60-09-17N, longitude: 12-59-40E, elevation: 120 m

Current weather observation

The report was made 23 minutes ago, at 22:50 UTC
Wind 3 kt from the East/Northeast, varying between North/Northeast and East
Temperature 2°C
Humidity 69%
Pressure 1017 hPa
Visibility 10 km or more

METAR: ESST 212250Z AUTO 06003KT 020V100 9999 FEW220/// 02/M03 Q1017

Time: 00:13 (23:13 UTC)


TAF: missing

Weather observations and forecasts of more than 4000 airports (METAR and TAF reports).

The available stations are represented by yellow and red dots on the map.

Hover mouse over dot to see the name of the station.

Then click to see weather observations and forecasts.

To change the map : click on the green buttons with a black cross to zoom in, on the green button with a dash to zoom out, or on the green arrows for adjacent maps.


METAR-TAF: